createdAt,value
2022-09-22T00:00:12.746Z,2.65
2022-09-22T00:02:47.040Z,2.63
2022-09-22T00:05:24.162Z,2.75
2022-09-22T00:07:59.771Z,3.00
2022-09-22T00:10:33.905Z,3.03
2022-09-22T00:13:08.025Z,2.90
2022-09-22T00:15:47.607Z,2.63
2022-09-22T00:18:21.724Z,3.33
2022-09-22T00:20:55.860Z,2.65
2022-09-22T00:23:32.120Z,2.90
2022-09-22T00:26:07.636Z,3.08
2022-09-22T00:28:42.562Z,2.45
2022-09-22T00:31:19.040Z,2.85
2022-09-22T00:33:54.057Z,2.95
2022-09-22T00:36:29.267Z,2.90
2022-09-22T00:39:05.171Z,3.03
2022-09-22T00:41:42.058Z,2.78
2022-09-22T00:44:36.164Z,2.80
2022-09-22T00:47:35.057Z,2.80
2022-09-22T00:50:14.102Z,2.67
2022-09-22T00:52:50.595Z,2.83
2022-09-22T00:55:31.142Z,2.83
2022-09-22T00:58:09.365Z,2.33
2022-09-22T01:00:43.654Z,2.60
2022-09-22T01:03:26.266Z,2.70
2022-09-22T01:06:06.619Z,2.50
2022-09-22T01:08:43.721Z,2.42
2022-09-22T01:11:20.872Z,2.90
2022-09-22T01:14:11.290Z,2.45
2022-09-22T01:16:53.948Z,2.72
2022-09-22T01:19:59.063Z,2.40
2022-09-22T01:23:00.827Z,2.20
2022-09-22T01:26:04.342Z,2.15
2022-09-22T01:29:04.946Z,1.90
2022-09-22T01:31:46.678Z,2.20
2022-09-22T01:34:28.667Z,2.22
2022-09-22T01:37:09.622Z,1.77
2022-09-22T01:39:47.382Z,2.45
2022-09-22T01:42:28.299Z,2.03
2022-09-22T01:45:07.189Z,2.60
2022-09-22T01:47:47.572Z,2.38
2022-09-22T01:50:26.579Z,2.30
2022-09-22T01:53:03.171Z,1.80
2022-09-22T01:55:39.399Z,1.65
2022-09-22T01:58:17.779Z,2.00
2022-09-22T02:00:56.810Z,2.17
2022-09-22T02:03:38.961Z,1.73
2022-09-22T02:06:17.350Z,1.80
2022-09-22T02:08:56.452Z,2.30
2022-09-22T02:11:30.471Z,1.65
2022-09-22T02:14:05.167Z,1.63
2022-09-22T02:16:39.136Z,1.75
2022-09-22T02:19:19.620Z,1.70
2022-09-22T02:21:53.372Z,1.67
2022-09-22T02:24:32.436Z,1.90
2022-09-22T02:27:13.348Z,2.03
2022-09-22T02:29:51.070Z,1.80
2022-09-22T02:32:26.969Z,1.80
2022-09-22T02:35:02.255Z,1.48
2022-09-22T02:37:42.008Z,2.00
2022-09-22T02:40:24.252Z,1.35
2022-09-22T02:43:07.777Z,1.70
2022-09-22T02:45:48.431Z,1.67
2022-09-22T02:48:26.333Z,1.90
2022-09-22T02:51:02.295Z,1.80
2022-09-22T02:53:37.484Z,1.75
2022-09-22T02:56:11.518Z,1.75
2022-09-22T02:58:45.286Z,1.90
2022-09-22T03:03:52.842Z,1.92
2022-09-22T03:06:28.261Z,1.50
2022-09-22T03:09:02.042Z,1.77
2022-09-22T03:14:09.350Z,2.05
2022-09-22T03:19:16.617Z,1.88
2022-09-22T03:24:25.283Z,2.13
2022-09-22T03:26:59.079Z,1.77
2022-09-22T03:32:06.640Z,1.85
2022-09-22T03:34:40.414Z,1.70
2022-09-22T03:37:16.312Z,1.70
2022-09-22T03:39:50.113Z,1.92
2022-09-22T03:44:57.357Z,1.70
2022-09-22T03:50:05.637Z,2.00
2022-09-22T03:52:43.112Z,1.40
2022-09-22T03:55:17.090Z,1.52
2022-09-22T03:57:50.857Z,1.70
2022-09-22T04:00:24.629Z,1.77
2022-09-22T04:05:32.178Z,1.45
2022-09-22T04:10:40.854Z,1.80
2022-09-22T04:15:48.234Z,1.80
2022-09-22T04:18:22.510Z,2.00
2022-09-22T04:20:58.966Z,2.13
2022-09-22T04:23:34.323Z,1.80
2022-09-22T04:26:08.226Z,2.22
2022-09-22T04:31:15.627Z,2.20
2022-09-22T04:33:49.510Z,1.85
2022-09-22T04:38:58.859Z,2.05
2022-09-22T04:41:32.760Z,1.70
2022-09-22T04:46:40.242Z,1.98
2022-09-22T04:49:14.289Z,1.90
2022-09-22T04:51:48.101Z,2.30
2022-09-22T04:56:56.814Z,2.00
2022-09-22T05:02:04.936Z,2.08
2022-09-22T05:04:38.686Z,1.85
2022-09-22T05:07:12.687Z,2.30
2022-09-22T05:09:47.828Z,1.77
2022-09-22T05:12:21.635Z,2.80
2022-09-22T05:17:28.896Z,2.30
2022-09-22T05:20:03.759Z,2.55
2022-09-22T05:22:40.459Z,2.33
2022-09-22T05:25:17.881Z,3.05
2022-09-22T05:27:53.351Z,2.90
2022-09-22T05:30:27.961Z,2.92
2022-09-22T05:33:01.777Z,2.80
2022-09-22T05:38:11.117Z,2.92
2022-09-22T05:43:21.942Z,3.28
2022-09-22T05:48:31.421Z,3.42
2022-09-22T05:51:05.647Z,3.95
2022-09-22T05:56:14.316Z,3.53
2022-09-22T05:58:48.916Z,3.50
2022-09-22T06:01:22.799Z,3.40
2022-09-22T06:03:56.732Z,2.90
2022-09-22T06:09:04.214Z,4.57
2022-09-22T06:11:39.422Z,5.65
2022-09-22T06:14:13.181Z,3.13
2022-09-22T06:16:48.061Z,4.60
2022-09-22T06:19:23.455Z,4.57
2022-09-22T06:21:57.226Z,4.65
2022-09-22T06:27:06.676Z,4.32
2022-09-22T06:29:41.772Z,4.20
2022-09-22T06:32:15.602Z,4.68
2022-09-22T06:37:23.553Z,4.15
2022-09-22T06:39:57.411Z,4.40
2022-09-22T06:45:07.889Z,5.78
2022-09-22T06:47:42.011Z,6.63
2022-09-22T06:50:17.798Z,5.50
2022-09-22T06:52:52.104Z,5.72
2022-09-22T06:55:25.897Z,5.88
2022-09-22T07:00:37.400Z,5.40
2022-09-22T07:03:18.032Z,5.32
2022-09-22T07:05:56.608Z,5.55
2022-09-22T07:08:31.979Z,5.10
2022-09-22T07:11:08.812Z,5.25
2022-09-22T07:13:46.394Z,4.88
2022-09-22T07:16:21.858Z,4.75
2022-09-22T07:18:58.458Z,4.85
2022-09-22T07:21:35.348Z,4.85
2022-09-22T07:24:09.472Z,3.78
2022-09-22T07:26:44.063Z,4.20
2022-09-22T07:29:19.660Z,4.85
2022-09-22T07:31:53.909Z,5.20
2022-09-22T07:34:27.992Z,4.82
2022-09-22T07:37:03.063Z,5.43
2022-09-22T07:39:36.958Z,4.85
2022-09-22T07:42:10.808Z,4.40
2022-09-22T07:45:03.760Z,4.80
2022-09-22T07:47:54.997Z,4.63
2022-09-22T07:50:29.203Z,5.22
2022-09-22T07:53:04.391Z,4.93
2022-09-22T07:55:41.949Z,5.43
2022-09-22T07:58:17.516Z,5.07
2022-09-22T08:00:53.822Z,5.00
2022-09-22T08:03:27.730Z,5.20
2022-09-22T08:08:47.869Z,4.47
2022-09-22T08:11:23.860Z,4.35
2022-09-22T08:14:00.223Z,4.20
2022-09-22T08:16:37.667Z,4.75
2022-09-22T08:19:13.439Z,4.80
2022-09-22T08:21:49.657Z,4.50
2022-09-22T08:24:24.704Z,4.38
2022-09-22T08:26:58.587Z,4.35
2022-09-22T08:29:32.679Z,4.95
2022-09-22T08:32:11.965Z,5.03
2022-09-22T08:34:46.202Z,5.05
2022-09-22T08:37:20.760Z,4.72
2022-09-22T08:39:56.532Z,5.00
2022-09-22T08:42:30.515Z,4.03
2022-09-22T08:45:08.272Z,4.45
2022-09-22T08:48:04.046Z,4.63
2022-09-22T08:51:05.434Z,4.80
2022-09-22T08:53:43.624Z,4.25
2022-09-22T08:56:29.390Z,4.30
2022-09-22T08:59:09.457Z,5.03
2022-09-22T09:02:14.624Z,4.93
2022-09-22T09:05:21.416Z,4.78
2022-09-22T09:08:03.312Z,4.57
2022-09-22T09:10:48.684Z,5.40
2022-09-22T09:13:36.745Z,4.90
2022-09-22T09:16:44.156Z,4.07
2022-09-22T09:19:21.327Z,4.47
2022-09-22T09:22:00.409Z,5.40
2022-09-22T09:27:41.994Z,5.03
2022-09-22T09:30:23.261Z,4.55
2022-09-22T09:33:00.725Z,3.95
2022-09-22T09:35:44.298Z,4.35
2022-09-22T09:38:22.932Z,4.40
2022-09-22T09:41:09.462Z,4.10
2022-09-22T09:43:45.736Z,5.00
2022-09-22T09:46:31.555Z,4.13
2022-09-22T09:49:14.540Z,4.65
2022-09-22T09:51:52.245Z,4.45
2022-09-22T09:54:28.634Z,4.88
2022-09-22T09:57:09.242Z,4.65
2022-09-22T10:00:01.930Z,3.88
2022-09-22T10:02:51.435Z,4.30
2022-09-22T10:05:27.293Z,4.70
2022-09-22T10:08:04.453Z,4.18
2022-09-22T10:10:41.344Z,4.28
2022-09-22T10:13:34.609Z,3.83
2022-09-22T10:16:22.098Z,3.80
2022-09-22T10:19:21.775Z,4.03
2022-09-22T10:22:23.219Z,4.07
2022-09-22T10:24:59.950Z,3.95
2022-09-22T10:27:35.479Z,4.15
2022-09-22T10:30:23.358Z,4.22
2022-09-22T10:33:14.093Z,4.05
2022-09-22T10:35:54.421Z,4.07
2022-09-22T10:38:29.245Z,4.00
2022-09-22T10:41:08.165Z,4.25
2022-09-22T10:43:49.988Z,3.60
2022-09-22T10:46:50.082Z,3.47
2022-09-22T10:49:37.107Z,2.97
2022-09-22T10:52:18.511Z,2.88
2022-09-22T10:55:15.902Z,2.90
2022-09-22T10:58:22.028Z,3.25
2022-09-22T11:01:09.389Z,2.97
2022-09-22T11:04:10.259Z,3.00
2022-09-22T11:07:16.540Z,3.05
2022-09-22T11:10:14.159Z,3.22
2022-09-22T11:12:57.529Z,2.83
2022-09-22T11:15:42.825Z,2.87
2022-09-22T11:18:47.374Z,2.60
2022-09-22T11:21:32.912Z,2.65
2022-09-22T11:24:29.663Z,2.80
2022-09-22T11:27:04.690Z,2.35
2022-09-22T11:30:10.737Z,3.00
2022-09-22T11:33:06.520Z,3.65
2022-09-22T11:35:58.263Z,3.97
2022-09-22T11:38:50.481Z,4.55
2022-09-22T11:41:32.029Z,3.47
2022-09-22T11:44:28.637Z,3.50
2022-09-22T11:47:21.311Z,3.47
2022-09-22T11:50:15.265Z,3.60
2022-09-22T11:53:27.361Z,3.38
2022-09-22T11:56:17.064Z,4.05
2022-09-22T11:58:54.547Z,3.55
2022-09-22T12:01:33.597Z,3.40
2022-09-22T12:04:16.636Z,3.28
2022-09-22T12:06:53.237Z,3.42
2022-09-22T12:09:38.144Z,3.00
2022-09-22T12:12:18.379Z,3.10
2022-09-22T12:15:00.369Z,3.08
2022-09-22T12:17:42.853Z,3.42
2022-09-22T12:20:30.479Z,3.17
2022-09-22T12:23:18.743Z,3.20
2022-09-22T12:25:55.340Z,2.85
2022-09-22T12:28:32.296Z,2.75
2022-09-22T12:31:12.969Z,2.75
2022-09-22T12:33:50.094Z,2.83
2022-09-22T12:36:31.032Z,2.40
2022-09-22T12:39:10.610Z,2.72
2022-09-22T12:41:48.335Z,2.70
2022-09-22T12:44:25.424Z,2.47
2022-09-22T12:47:03.082Z,2.53
2022-09-22T12:49:49.684Z,3.00
2022-09-22T12:52:57.593Z,2.40
2022-09-22T12:55:38.595Z,2.03
2022-09-22T12:58:42.393Z,2.22
2022-09-22T13:01:38.255Z,1.92
2022-09-22T13:04:19.223Z,2.50
2022-09-22T13:07:00.458Z,2.35
2022-09-22T13:09:34.402Z,2.80
2022-09-22T13:12:31.082Z,2.33
2022-09-22T13:15:24.258Z,2.28
2022-09-22T13:17:58.967Z,2.10
2022-09-22T13:20:34.408Z,2.35
2022-09-22T13:23:12.101Z,2.20
2022-09-22T13:25:46.016Z,3.00
2022-09-22T13:31:06.267Z,2.80
2022-09-22T13:33:40.450Z,2.38
2022-09-22T13:38:54.186Z,2.65
2022-09-22T13:41:30.285Z,2.65
2022-09-22T13:44:11.885Z,2.83
2022-09-22T13:46:49.398Z,2.97
2022-09-22T13:49:33.349Z,2.42
2022-09-22T13:52:10.085Z,3.00
2022-09-22T13:54:47.329Z,2.33
2022-09-22T13:57:24.655Z,2.70
2022-09-22T14:00:00.479Z,2.20
2022-09-22T14:02:36.828Z,2.47
2022-09-22T14:05:20.535Z,2.25
2022-09-22T14:08:11.218Z,2.22
2022-09-22T14:10:47.995Z,2.30
2022-09-22T14:13:42.400Z,2.42
2022-09-22T14:19:04.539Z,2.08
2022-09-22T14:21:44.814Z,3.28
2022-09-22T14:24:20.444Z,2.35
2022-09-22T14:26:59.055Z,2.28
2022-09-22T14:29:40.129Z,1.88
2022-09-22T14:32:20.624Z,1.95
2022-09-22T14:34:58.810Z,2.42
2022-09-22T14:37:35.420Z,1.92
2022-09-22T14:40:16.418Z,2.13
2022-09-22T14:42:58.285Z,2.30
2022-09-22T14:45:33.343Z,2.47
2022-09-22T14:48:21.139Z,2.80
2022-09-22T14:50:59.569Z,1.98
2022-09-22T14:53:37.592Z,2.67
2022-09-22T14:56:16.716Z,2.63
2022-09-22T14:58:52.927Z,2.97
2022-09-22T15:01:46.193Z,1.88
2022-09-22T15:04:23.564Z,2.38
2022-09-22T15:07:00.180Z,2.58
2022-09-22T15:09:39.678Z,2.70
2022-09-22T15:12:36.085Z,2.95
2022-09-22T15:15:18.785Z,2.60
2022-09-22T15:18:12.050Z,2.30
2022-09-22T15:20:48.701Z,2.97
2022-09-22T15:23:28.577Z,2.50
2022-09-22T15:26:04.197Z,2.65
2022-09-22T15:28:38.334Z,2.95
2022-09-22T15:31:14.051Z,3.35
2022-09-22T15:33:47.949Z,2.67
2022-09-22T15:39:01.147Z,3.08
2022-09-22T15:41:35.279Z,2.90
2022-09-22T15:44:10.411Z,2.63
2022-09-22T15:46:46.402Z,3.33
2022-09-22T15:49:24.966Z,2.80
2022-09-22T15:51:58.829Z,3.40
2022-09-22T15:57:07.977Z,3.25
2022-09-22T15:59:43.122Z,3.08
2022-09-22T16:02:17.471Z,3.20
2022-09-22T16:04:52.922Z,3.03
2022-09-22T16:07:27.008Z,3.15
2022-09-22T16:10:02.438Z,2.83
2022-09-22T16:12:36.307Z,3.38
2022-09-22T16:17:48.225Z,12.38
2022-09-22T16:20:22.293Z,16.90
2022-09-22T16:22:56.415Z,10.13
2022-09-22T16:25:32.596Z,9.80
2022-09-22T16:28:07.619Z,8.05
2022-09-22T16:30:41.569Z,7.85
2022-09-22T16:33:15.813Z,8.90
2022-09-22T16:35:49.757Z,9.57
2022-09-22T16:41:06.988Z,8.40
2022-09-22T16:43:42.357Z,8.23
2022-09-22T16:46:30.508Z,8.10
2022-09-22T16:49:10.611Z,9.32
2022-09-22T16:51:47.031Z,7.93
2022-09-22T16:54:26.502Z,7.85
2022-09-22T16:57:02.047Z,7.85
2022-09-22T16:59:35.864Z,7.35
2022-09-22T17:04:45.781Z,6.00
2022-09-22T17:07:19.991Z,6.78
2022-09-22T17:09:53.934Z,6.45
2022-09-22T17:12:29.962Z,6.10
2022-09-22T17:15:03.911Z,5.88
2022-09-22T17:17:38.030Z,6.97
2022-09-22T17:20:13.533Z,6.72
2022-09-22T17:22:47.927Z,6.25
2022-09-22T17:25:21.937Z,6.35
2022-09-22T17:27:57.879Z,5.55
2022-09-22T17:30:31.685Z,5.95
2022-09-22T17:35:39.294Z,5.60
2022-09-22T17:38:13.136Z,5.95
2022-09-22T17:43:23.280Z,5.65
2022-09-22T17:45:57.331Z,4.90
2022-09-22T17:48:49.126Z,5.57
2022-09-22T17:51:48.848Z,5.60
2022-09-22T17:54:42.105Z,5.90
2022-09-22T17:57:18.291Z,5.95
2022-09-22T17:59:55.363Z,5.85
2022-09-22T18:02:32.412Z,5.70
2022-09-22T18:05:08.379Z,6.32
2022-09-22T18:07:43.377Z,6.20
2022-09-22T18:10:19.888Z,6.15
2022-09-22T18:12:53.936Z,6.45
2022-09-22T18:15:29.542Z,6.72
2022-09-22T18:18:03.512Z,6.47
2022-09-22T18:23:12.609Z,6.22
2022-09-22T18:25:46.637Z,5.43
2022-09-22T18:28:24.157Z,6.18
2022-09-22T18:30:59.986Z,6.65
2022-09-22T18:33:36.230Z,5.68
2022-09-22T18:36:10.304Z,5.72
2022-09-22T18:38:44.387Z,6.05
2022-09-22T18:41:19.894Z,5.78
2022-09-22T18:43:55.270Z,6.03
2022-09-22T18:46:30.987Z,5.95
2022-09-22T18:49:06.873Z,6.60
2022-09-22T18:51:42.769Z,5.63
2022-09-22T18:54:19.515Z,5.80
2022-09-22T18:56:54.267Z,6.00
2022-09-22T18:59:29.022Z,5.55
2022-09-22T19:02:05.507Z,5.43
2022-09-22T19:04:41.978Z,5.85
2022-09-22T19:07:35.591Z,5.93
2022-09-22T19:10:12.452Z,6.50
2022-09-22T19:12:46.329Z,6.90
2022-09-22T19:17:55.726Z,6.32
2022-09-22T19:20:29.835Z,6.88
2022-09-22T19:23:05.871Z,5.90
2022-09-22T19:25:42.337Z,5.72
2022-09-22T19:28:16.257Z,6.13
2022-09-22T19:33:25.170Z,6.38
2022-09-22T19:35:58.974Z,6.47
2022-09-22T19:41:06.554Z,6.23
2022-09-22T19:43:40.392Z,5.20
2022-09-22T19:46:14.495Z,6.18
2022-09-22T19:48:50.047Z,6.70
2022-09-22T19:51:23.832Z,5.82
2022-09-22T19:53:57.885Z,6.47
2022-09-22T19:59:07.302Z,5.88
2022-09-22T20:01:43.186Z,6.03
2022-09-22T20:04:20.843Z,5.90
2022-09-22T20:06:54.896Z,6.60
2022-09-22T20:09:28.750Z,6.18
2022-09-22T20:14:36.790Z,6.72
2022-09-22T20:17:10.998Z,5.68
2022-09-22T20:19:46.454Z,6.85
2022-09-22T20:22:25.559Z,6.88
2022-09-22T20:25:01.603Z,6.88
2022-09-22T20:27:36.921Z,6.47
2022-09-22T20:30:15.253Z,6.63
2022-09-22T20:32:50.495Z,6.68
2022-09-22T20:35:25.814Z,7.18
2022-09-22T20:38:00.804Z,8.50
2022-09-22T20:40:34.720Z,6.63
2022-09-22T20:43:08.856Z,7.47
2022-09-22T20:45:43.694Z,6.88
2022-09-22T20:48:18.632Z,7.03
2022-09-22T20:50:58.085Z,7.47
2022-09-22T20:53:34.201Z,7.30
2022-09-22T20:56:10.062Z,7.63
2022-09-22T20:58:45.689Z,6.55
2022-09-22T21:01:20.329Z,6.78
2022-09-22T21:03:54.315Z,7.68
2022-09-22T21:09:22.880Z,6.68
2022-09-22T21:11:57.152Z,6.85
2022-09-22T21:14:31.955Z,6.63
2022-09-22T21:17:06.923Z,7.20
2022-09-22T21:19:41.009Z,6.90
2022-09-22T21:22:16.670Z,8.43
2022-09-22T21:24:51.497Z,7.18
2022-09-22T21:27:25.815Z,7.45
2022-09-22T21:29:59.622Z,6.88
2022-09-22T21:32:33.799Z,6.80
2022-09-22T21:35:08.829Z,7.47
2022-09-22T21:37:44.794Z,7.40
2022-09-22T21:40:18.929Z,6.55
2022-09-22T21:42:53.317Z,7.00
2022-09-22T21:45:27.099Z,7.50
2022-09-22T21:50:34.527Z,7.10
2022-09-22T21:53:10.567Z,7.32
2022-09-22T21:55:44.496Z,7.85
2022-09-22T21:58:18.612Z,6.60
2022-09-22T22:00:52.539Z,6.32
2022-09-22T22:03:33.641Z,6.22
2022-09-22T22:06:11.008Z,7.32
2022-09-22T22:08:48.086Z,6.47
2022-09-22T22:11:24.021Z,6.43
2022-09-22T22:13:59.215Z,7.05
2022-09-22T22:16:37.999Z,6.90
2022-09-22T22:19:13.783Z,6.40
2022-09-22T22:21:48.918Z,7.15
2022-09-22T22:24:39.533Z,6.72
2022-09-22T22:27:14.960Z,6.20
2022-09-22T22:29:48.809Z,6.25
2022-09-22T22:32:22.634Z,7.28
2022-09-22T22:37:29.978Z,6.93
2022-09-22T22:42:39.205Z,7.25
2022-09-22T22:45:14.814Z,6.72
2022-09-22T22:47:48.652Z,5.57
2022-09-22T22:52:56.378Z,6.03
2022-09-22T22:55:32.564Z,5.78
2022-09-22T22:58:07.670Z,6.00
2022-09-22T23:00:41.667Z,5.55
2022-09-22T23:05:57.254Z,5.63
2022-09-22T23:08:31.382Z,5.95
2022-09-22T23:11:11.554Z,5.22
2022-09-22T23:13:51.031Z,5.85
2022-09-22T23:16:27.330Z,5.32
2022-09-22T23:19:03.055Z,5.70
2022-09-22T23:21:37.841Z,4.90
2022-09-22T23:24:16.471Z,5.15
2022-09-22T23:26:51.932Z,5.22
2022-09-22T23:29:25.761Z,5.28
2022-09-22T23:34:33.249Z,5.07
2022-09-22T23:39:40.568Z,5.68
2022-09-22T23:44:49.464Z,5.13
2022-09-22T23:49:57.317Z,5.18
2022-09-22T23:52:31.548Z,5.78
2022-09-22T23:55:05.954Z,5.15
2022-09-22T23:57:41.154Z,5.18
